Time,TemperatureF,DewpointF,PressureIn,WindDirection,WindDirectionDegrees,WindSpeedMPH,WindSpeedGustMPH,Humidity,HourlyPrecipIn,Conditions,Clouds,dailyrainin,SoftwareType,DateUTC
2013-07-18 00:04:00,76.2,75.9,30.10,NNW,336,5.9,8.3,99,0.00,RA,,0.00,WeatherDisplay:10.37,2013-07-18 05:04:00,
2013-07-18 00:09:00,76.2,75.9,30.10,North,1,6.3,9.2,99,0.00,RA,,0.00,WeatherDisplay:10.37,2013-07-18 05:09:00,
2013-07-18 00:14:00,76.2,76.2,30.10,North,352,6.3,9.4,100,0.00,RA,,0.00,WeatherDisplay:10.37,2013-07-18 05:14:00,
2013-07-18 00:19:00,76.4,76.4,30.10,North,4,2.9,7.5,100,0.00,RA,,0.00,WeatherDisplay:10.37,2013-07-18 05:19:00,
2013-07-18 00:24:00,76.6,76.6,30.10,NNW,346,3.7,9.6,100,0.00,CLR,,0.00,WeatherDisplay:10.37,2013-07-18 05:24:00,
2013-07-18 00:29:00,76.5,76.5,30.10,North,359,4.9,9.2,100,0.00,CLR,,0.01,WeatherDisplay:10.37,2013-07-18 05:29:00,
2013-07-18 00:34:00,76.5,76.5,30.10,North,357,6.5,9.3,100,0.01,RA,,0.01,WeatherDisplay:10.37,2013-07-18 05:34:00,
2013-07-18 00:39:00,76.4,76.4,30.11,North,349,1.1,5.8,100,0.01,RA,,0.01,WeatherDisplay:10.37,2013-07-18 05:39:00,
2013-07-18 00:44:00,76.4,76.4,30.11,North,359,2.1,7.0,100,0.01,RA,,0.01,WeatherDisplay:10.37,2013-07-18 05:44:00,
2013-07-18 00:49:00,76.5,76.5,30.11,NNW,337,3.1,5.8,100,0.01,RA,,0.01,WeatherDisplay:10.37,2013-07-18 05:49:00,
2013-07-18 00:54:00,76.6,76.6,30.11,NE,41,4.9,6.9,100,0.01,CLR,,0.01,WeatherDisplay:10.37,2013-07-18 05:54:00,
2013-07-18 00:59:00,76.5,76.5,30.11,North,356,2.7,5.8,100,0.01,CLR,,0.01,WeatherDisplay:10.37,2013-07-18 05:59:00,
2013-07-18 01:04:00,76.5,76.5,30.11,North,357,2.8,6.9,100,0.01,CLR,,0.01,WeatherDisplay:10.37,2013-07-18 06:04:00,
2013-07-18 01:09:00,76.4,76.4,30.11,NNW,343,3.3,5.4,100,0.01,CLR,,0.01,WeatherDisplay:10.37,2013-07-18 06:09:00,
2013-07-18 01:14:00,76.3,76.3,30.11,NW,326,3.8,6.7,100,0.01,CLR,,0.01,WeatherDisplay:10.37,2013-07-18 06:14:00,
2013-07-18 01:19:00,76.3,76.3,30.10,NNE,13,3.1,5.8,100,0.01,CLR,,0.01,WeatherDisplay:10.37,2013-07-18 06:19:00,
2013-07-18 01:24:00,76.3,76.3,30.10,NNW,347,0.4,5.8,100,0.01,CLR,,0.01,WeatherDisplay:10.37,2013-07-18 06:24:00,
2013-07-18 01:29:00,76.3,76.3,30.10,NNW,344,3.4,6.2,100,0.01,CLR,,0.01,WeatherDisplay:10.37,2013-07-18 06:29:00,
2013-07-18 01:34:00,76.3,76.3,30.10,North,11,3.0,6.9,100,0.00,CLR,,0.01,WeatherDisplay:10.37,2013-07-18 06:34:00,
2013-07-18 01:39:00,76.3,76.3,30.10,North,357,1.4,5.8,100,0.00,CLR,,0.01,WeatherDisplay:10.37,2013-07-18 06:39:00,
2013-07-18 01:44:00,76.3,76.3,30.10,NNE,17,3.3,6.9,100,0.00,CLR,,0.01,WeatherDisplay:10.37,2013-07-18 06:44:00,
2013-07-18 01:49:00,76.3,76.3,30.09,North,356,0.0,0.0,100,0.00,CLR,,0.02,WeatherDisplay:10.37,2013-07-18 06:49:00,
2013-07-18 01:54:00,76.5,76.5,30.09,North,3,3.2,6.9,100,0.17,RA,,0.20,WeatherDisplay:10.37,2013-07-18 06:54:00,
2013-07-18 01:59:00,76.7,76.7,30.08,NNW,330,6.4,11.5,100,0.37,RA,,0.38,WeatherDisplay:10.37,2013-07-18 06:59:00,
2013-07-18 02:04:00,76.4,76.4,30.09,North,8,2.9,5.8,100,0.37,RA,,0.38,WeatherDisplay:10.37,2013-07-18 07:04:00,
2013-07-18 02:09:00,76.8,76.8,30.09,NE,44,5.1,8.1,100,0.37,RA,,0.38,WeatherDisplay:10.37,2013-07-18 07:09:00,
2013-07-18 02:14:00,77.1,77.1,30.09,NW,325,0.7,5.8,100,0.37,RA,,0.38,WeatherDisplay:10.37,2013-07-18 07:14:00,
2013-07-18 02:20:00,77.2,77.2,30.09,NE,52,7.2,17.3,100,0.37,,,0.38,WeatherDisplay:10.37,2013-07-18 07:20:00,
2013-07-18 02:25:00,77.2,77.2,30.09,East,80,15.8,25.3,100,0.38,RA,,0.39,WeatherDisplay:10.37,2013-07-18 07:25:00,
2013-07-18 02:30:00,76.6,76.6,30.09,ENE,72,15.3,20.7,100,0.39,RA,,0.40,WeatherDisplay:10.37,2013-07-18 07:30:00,
2013-07-18 02:35:00,75.9,75.9,30.09,ENE,58,12.4,17.3,100,0.42,RA,,0.45,WeatherDisplay:10.37,2013-07-18 07:35:00,
2013-07-18 02:40:00,75.7,75.7,30.08,NE,35,6.6,9.2,100,0.50,RA,,0.51,WeatherDisplay:10.37,2013-07-18 07:40:00,
2013-07-18 02:45:00,75.4,75.4,30.08,NE,34,5.7,9.3,100,0.52,RA,,0.53,WeatherDisplay:10.37,2013-07-18 07:45:00,
2013-07-18 02:50:00,75.2,75.2,30.08,NNE,28,0.0,3.5,100,0.51,RA,,0.54,WeatherDisplay:10.37,2013-07-18 07:50:00,
2013-07-18 02:55:00,75.2,75.2,30.08,NE,37,2.6,4.6,100,0.34,RA,,0.54,WeatherDisplay:10.37,2013-07-18 07:55:00,
2013-07-18 03:00:00,75.2,75.2,30.08,NE,47,0.0,0.0,100,0.17,RA,,0.55,WeatherDisplay:10.37,2013-07-18 08:00:00,
2013-07-18 03:05:00,75.3,75.3,30.08,NE,47,0.0,0.0,100,0.17,RA,,0.55,WeatherDisplay:10.37,2013-07-18 08:05:00,
2013-07-18 03:10:00,75.3,75.3,30.08,NE,47,0.0,0.0,100,0.17,RA,,0.55,WeatherDisplay:10.37,2013-07-18 08:10:00,
2013-07-18 03:15:00,75.5,75.5,30.08,ENE,72,2.3,5.8,100,0.18,RA,,0.56,WeatherDisplay:10.37,2013-07-18 08:15:00,
2013-07-18 03:20:00,75.6,75.6,30.08,East,89,0.7,4.1,100,0.19,RA,,0.57,WeatherDisplay:10.37,2013-07-18 08:20:00,
2013-07-18 03:25:00,76.0,76.0,30.07,ENE,69,0.7,4.9,100,0.18,RA,,0.57,WeatherDisplay:10.37,2013-07-18 08:25:00,
2013-07-18 03:30:00,76.5,76.5,30.07,East,88,0.0,4.6,100,0.17,RA,,0.57,WeatherDisplay:10.37,2013-07-18 08:30:00,
2013-07-18 03:35:00,76.9,76.9,30.07,East,88,0.0,0.0,100,0.14,RA,,0.57,WeatherDisplay:10.37,2013-07-18 08:35:00,
2013-07-18 03:40:00,77.0,77.0,30.07,East,88,0.0,0.0,100,0.06,,,0.58,WeatherDisplay:10.37,2013-07-18 08:40:00,
2013-07-18 03:45:00,77.0,77.0,30.07,ENE,65,0.0,0.0,100,0.06,RA,,0.59,WeatherDisplay:10.37,2013-07-18 08:45:00,
2013-07-18 03:50:00,76.9,76.9,30.07,North,360,1.9,5.0,100,0.05,RA,,0.59,WeatherDisplay:10.37,2013-07-18 08:50:00,
2013-07-18 03:55:00,76.4,76.4,30.07,NNW,337,3.0,8.1,100,0.05,RA,,0.59,WeatherDisplay:10.37,2013-07-18 08:55:00,
2013-07-18 04:00:00,76.3,76.3,30.07,NNW,347,1.9,6.0,100,0.04,RA,,0.59,WeatherDisplay:10.37,2013-07-18 09:00:00,
2013-07-18 04:05:00,76.0,76.0,30.07,NW,315,0.9,4.6,100,0.04,CLR,,0.59,WeatherDisplay:10.37,2013-07-18 09:05:00,
2013-07-18 04:10:00,76.0,76.0,30.07,WNW,289,0.0,4.6,100,0.04,CLR,,0.59,WeatherDisplay:10.37,2013-07-18 09:10:00,
2013-07-18 04:16:00,75.9,75.9,30.07,NW,318,5.3,6.9,100,0.03,CLR,,0.59,WeatherDisplay:10.37,2013-07-18 09:16:00,
2013-07-18 04:21:00,75.9,75.9,30.07,NW,309,0.0,5.8,100,0.02,CLR,,0.59,WeatherDisplay:10.37,2013-07-18 09:21:00,
2013-07-18 04:26:00,75.9,75.9,30.07,WNW,295,1.1,4.7,100,0.02,CLR,,0.59,WeatherDisplay:10.37,2013-07-18 09:26:00,
2013-07-18 04:31:00,75.9,75.9,30.06,NNW,335,2.3,4.6,100,0.02,CLR,,0.59,WeatherDisplay:10.37,2013-07-18 09:31:00,
2013-07-18 04:36:00,75.9,75.9,30.07,NNW,346,2.2,5.8,100,0.02,CLR,,0.59,WeatherDisplay:10.37,2013-07-18 09:36:00,
2013-07-18 04:41:00,76.0,76.0,30.06,North,353,3.5,6.0,100,0.01,CLR,,0.59,WeatherDisplay:10.37,2013-07-18 09:41:00,
2013-07-18 04:46:00,76.0,76.0,30.06,NW,319,1.1,6.9,100,0.00,CLR,,0.59,WeatherDisplay:10.37,2013-07-18 09:46:00,
2013-07-18 04:51:00,76.0,76.0,30.06,NW,315,0.0,2.3,100,0.00,CLR,,0.59,WeatherDisplay:10.37,2013-07-18 09:51:00,
2013-07-18 04:56:00,76.0,76.0,30.06,North,0,1.7,6.9,100,0.00,CLR,,0.59,WeatherDisplay:10.37,2013-07-18 09:56:00,
2013-07-18 05:01:00,76.1,76.1,30.06,NW,309,0.0,2.3,100,0.00,CLR,,0.59,WeatherDisplay:10.37,2013-07-18 10:01:00,
2013-07-18 05:06:00,76.2,76.2,30.06,North,0,3.7,6.9,100,0.00,CLR,,0.59,WeatherDisplay:10.37,2013-07-18 10:06:00,
2013-07-18 05:11:00,76.3,76.3,30.06,North,357,0.6,5.8,100,0.00,CLR,,0.59,WeatherDisplay:10.37,2013-07-18 10:11:00,
2013-07-18 05:16:00,76.4,76.4,30.06,NW,318,0.0,0.0,100,0.00,CLR,,0.59,WeatherDisplay:10.37,2013-07-18 10:16:00,
2013-07-18 05:21:00,76.5,76.5,30.07,ENE,76,7.2,9.6,100,0.00,CLR,,0.59,WeatherDisplay:10.37,2013-07-18 10:21:00,
2013-07-18 05:27:00,76.5,76.5,30.08,ENE,75,12.7,22.0,100,0.00,CLR,,0.59,WeatherDisplay:10.37,2013-07-18 10:27:00,
2013-07-18 05:32:00,74.6,74.3,30.07,ESE,103,13.5,38.0,99,0.04,RA,,0.65,WeatherDisplay:10.37,2013-07-18 10:32:00,
2013-07-18 05:37:00,73.9,73.9,30.08,East,80,13.1,20.7,100,0.24,RA,,0.88,WeatherDisplay:10.37,2013-07-18 10:37:00,
2013-07-18 05:42:00,73.9,73.9,30.09,East,89,9.5,16.1,100,0.35,RA,,0.95,WeatherDisplay:10.37,2013-07-18 10:42:00,
2013-07-18 05:47:00,73.8,73.8,30.08,ENE,75,7.9,13.8,100,0.44,RA,,1.04,WeatherDisplay:10.37,2013-07-18 10:47:00,
2013-07-18 05:52:00,73.7,73.7,30.08,NNE,28,6.3,9.2,100,0.49,RA,,1.08,WeatherDisplay:10.37,2013-07-18 10:52:00,
2013-07-18 05:57:00,73.5,73.5,30.08,NE,52,3.0,9.7,100,0.52,RA,,1.11,WeatherDisplay:10.37,2013-07-18 10:57:00,
2013-07-18 06:02:00,73.3,73.3,30.07,NE,52,0.0,0.0,100,0.54,RA,,1.13,WeatherDisplay:10.37,2013-07-18 11:02:00,
2013-07-18 06:07:00,73.1,73.1,30.07,NE,52,0.0,0.0,100,0.54,RA,,1.13,WeatherDisplay:10.37,2013-07-18 11:07:00,
2013-07-18 06:12:00,73.1,73.1,30.07,NE,52,0.0,0.0,100,0.54,RA,,1.14,WeatherDisplay:10.37,2013-07-18 11:12:00,
2013-07-18 06:17:00,73.2,73.2,30.07,NE,52,0.0,0.0,100,0.55,RA,,1.14,WeatherDisplay:10.37,2013-07-18 11:17:00,
2013-07-18 06:22:00,73.0,73.0,30.08,NE,52,0.0,0.0,100,0.56,RA,,1.15,WeatherDisplay:10.37,2013-07-18 11:22:00,
2013-07-18 06:27:00,73.1,73.1,30.08,NE,52,0.0,0.0,100,0.56,RA,,1.15,WeatherDisplay:10.37,2013-07-18 11:27:00,
2013-07-18 06:32:00,73.3,73.3,30.07,NE,52,0.0,0.0,100,0.50,RA,,1.15,WeatherDisplay:10.37,2013-07-18 11:32:00,
2013-07-18 06:37:00,73.3,73.3,30.09,SE,131,8.3,16.3,100,0.32,RA,,1.15,WeatherDisplay:10.37,2013-07-18 11:37:00,
2013-07-18 06:42:00,73.9,73.9,30.10,ENE,64,6.3,12.7,100,0.21,RA,,1.16,WeatherDisplay:10.37,2013-07-18 11:42:00,
2013-07-18 06:47:00,74.3,74.3,30.10,ENE,76,2.4,8.1,100,0.15,RA,,1.19,WeatherDisplay:10.37,2013-07-18 11:47:00,
2013-07-18 06:52:00,74.6,74.6,30.09,ESE,103,8.7,13.8,100,0.11,RA,,1.20,WeatherDisplay:10.37,2013-07-18 11:52:00,
2013-07-18 06:57:00,74.4,74.4,30.09,East,86,6.3,9.3,100,0.11,RA,,1.22,WeatherDisplay:10.37,2013-07-18 11:57:00,
2013-07-18 07:02:00,74.3,74.3,30.09,ENE,72,6.2,9.4,100,0.15,RA,,1.28,WeatherDisplay:10.37,2013-07-18 12:02:00,
2013-07-18 07:07:00,74.3,74.3,30.09,ENE,69,3.3,6.9,100,0.15,RA,,1.28,WeatherDisplay:10.37,2013-07-18 12:07:00,
2013-07-18 07:12:00,74.3,74.3,30.09,NE,45,0.0,0.0,100,0.14,RA,,1.28,WeatherDisplay:10.37,2013-07-18 12:12:00,
2013-07-18 07:17:00,74.4,74.4,30.09,ENE,72,1.6,3.5,100,0.14,RA,,1.28,WeatherDisplay:10.37,2013-07-18 12:17:00,
2013-07-18 07:22:00,74.4,74.4,30.09,ENE,72,0.0,0.0,100,0.13,,,1.28,WeatherDisplay:10.37,2013-07-18 12:22:00,
2013-07-18 07:27:00,74.4,74.1,30.09,ENE,72,0.0,0.0,99,0.13,CLR,,1.28,WeatherDisplay:10.37,2013-07-18 12:27:00,
2013-07-18 07:32:00,74.4,74.1,30.10,ENE,72,0.0,0.0,99,0.13,CLR,,1.28,WeatherDisplay:10.37,2013-07-18 12:32:00,
2013-07-18 07:37:00,74.5,74.2,30.10,ENE,59,0.0,0.0,99,0.13,CLR,,1.28,WeatherDisplay:10.37,2013-07-18 12:37:00,
2013-07-18 07:42:00,74.6,74.6,30.10,ESE,121,2.1,5.0,100,0.12,CLR,,1.28,WeatherDisplay:10.37,2013-07-18 12:42:00,
2013-07-18 07:47:00,74.9,74.9,30.10,ESE,114,0.7,5.8,100,0.09,CLR,,1.28,WeatherDisplay:10.37,2013-07-18 12:47:00,
2013-07-18 07:52:00,75.0,75.0,30.10,ENE,75,2.5,4.6,100,0.09,RA,,1.29,WeatherDisplay:10.37,2013-07-18 12:52:00,
2013-07-18 07:57:00,75.2,74.9,30.10,ESE,107,1.1,2.2,99,0.07,RA,,1.29,WeatherDisplay:10.37,2013-07-18 12:57:00,
2013-07-18 08:02:00,75.1,74.8,30.10,East,85,0.0,2.5,99,0.01,RA,,1.29,WeatherDisplay:10.37,2013-07-18 13:02:00,
2013-07-18 08:07:00,75.2,74.9,30.11,East,85,0.0,0.0,99,0.01,RA,,1.29,WeatherDisplay:10.37,2013-07-18 13:07:00,
2013-07-18 08:12:00,75.3,75.0,30.11,East,85,0.0,0.0,99,0.02,RA,,1.30,WeatherDisplay:10.37,2013-07-18 13:12:00,
2013-07-18 08:18:00,75.2,74.9,30.10,East,85,0.0,0.0,99,0.02,RA,,1.30,WeatherDisplay:10.37,2013-07-18 13:18:00,
2013-07-18 08:23:00,75.1,74.8,30.11,East,97,1.9,4.8,99,0.03,RA,,1.31,WeatherDisplay:10.37,2013-07-18 13:23:00,
2013-07-18 08:28:00,75.2,74.9,30.11,East,88,2.5,8.1,99,0.04,RA,,1.32,WeatherDisplay:10.37,2013-07-18 13:28:00,
2013-07-18 08:33:00,75.4,75.1,30.11,SE,137,3.8,7.0,99,0.04,RA,,1.32,WeatherDisplay:10.37,2013-07-18 13:33:00,
2013-07-18 08:38:00,75.7,75.4,30.11,SSE,157,4.0,6.9,99,0.05,RA,,1.33,WeatherDisplay:10.37,2013-07-18 13:38:00,
2013-07-18 08:43:00,75.9,75.3,30.11,SE,133,2.3,4.6,98,0.05,RA,,1.33,WeatherDisplay:10.37,2013-07-18 13:43:00,
2013-07-18 08:48:00,76.1,75.5,30.11,East,96,1.4,4.6,98,0.06,RA,,1.34,WeatherDisplay:10.37,2013-07-18 13:48:00,
2013-07-18 08:53:00,76.2,75.6,30.10,ESE,121,0.0,0.0,98,0.05,RA,,1.34,WeatherDisplay:10.37,2013-07-18 13:53:00,
2013-07-18 08:58:00,76.4,75.8,30.10,SE,134,2.8,5.8,98,0.05,RA,,1.34,WeatherDisplay:10.37,2013-07-18 13:58:00,
2013-07-18 09:03:00,76.6,76.0,30.11,SE,141,2.3,5.8,98,0.05,RA,,1.34,WeatherDisplay:10.37,2013-07-18 14:03:00,
2013-07-18 09:08:00,76.8,76.2,30.11,SE,136,3.4,5.1,98,0.05,CLR,,1.34,WeatherDisplay:10.37,2013-07-18 14:08:00,
2013-07-18 09:13:00,77.1,76.5,30.11,SSE,164,2.9,5.9,98,0.04,CLR,,1.34,WeatherDisplay:10.37,2013-07-18 14:13:00,
2013-07-18 09:18:00,77.1,76.5,30.11,South,188,2.0,4.1,98,0.04,CLR,,1.34,WeatherDisplay:10.37,2013-07-18 14:18:00,
2013-07-18 09:23:00,77.3,76.7,30.11,SSE,168,0.0,0.0,98,0.03,CLR,,1.34,WeatherDisplay:10.37,2013-07-18 14:23:00,
2013-07-18 09:28:00,77.2,76.6,30.11,SSE,152,3.0,5.8,98,0.02,CLR,,1.34,WeatherDisplay:10.37,2013-07-18 14:28:00,
2013-07-18 09:33:00,77.1,76.5,30.11,South,175,3.2,4.6,98,0.02,CLR,,1.34,WeatherDisplay:10.37,2013-07-18 14:33:00,
2013-07-18 09:38:00,76.8,75.9,30.11,SE,137,2.3,4.6,97,0.01,CLR,,1.34,WeatherDisplay:10.37,2013-07-18 14:38:00,
2013-07-18 09:43:00,76.8,75.9,30.11,ENE,75,2.0,4.6,97,0.01,CLR,,1.34,WeatherDisplay:10.37,2013-07-18 14:43:00,
2013-07-18 09:48:00,76.9,75.7,30.11,ESE,102,0.0,4.6,96,0.00,CLR,,1.34,WeatherDisplay:10.37,2013-07-18 14:48:00,
2013-07-18 09:53:00,77.1,75.9,30.11,SE,140,1.4,3.8,96,0.00,CLR,,1.34,WeatherDisplay:10.37,2013-07-18 14:53:00,
2013-07-18 09:58:00,77.4,75.9,30.11,SE,140,0.0,0.0,95,0.00,CLR,,1.34,WeatherDisplay:10.37,2013-07-18 14:58:00,
2013-07-18 10:03:00,77.4,75.5,30.11,SE,144,0.0,4.6,94,0.00,CLR,,1.34,WeatherDisplay:10.37,2013-07-18 15:03:00,
2013-07-18 10:08:00,77.9,76.0,30.11,SE,144,0.0,4.6,94,0.00,CLR,,1.34,WeatherDisplay:10.37,2013-07-18 15:08:00,
2013-07-18 10:13:00,78.1,75.6,30.11,SE,144,0.0,0.0,92,0.00,CLR,,1.34,WeatherDisplay:10.37,2013-07-18 15:13:00,
2013-07-18 10:18:00,78.5,76.0,30.11,SE,144,0.0,0.0,92,0.00,CLR,,1.34,WeatherDisplay:10.37,2013-07-18 15:18:00,
2013-07-18 10:23:00,79.0,76.5,30.11,SE,144,0.0,0.0,92,0.00,CLR,,1.34,WeatherDisplay:10.37,2013-07-18 15:23:00,
2013-07-18 10:28:00,79.2,76.3,30.11,SE,144,0.0,0.0,91,0.00,CLR,,1.34,WeatherDisplay:10.37,2013-07-18 15:28:00,
2013-07-18 10:33:00,79.3,76.1,30.11,SE,144,0.0,0.0,90,0.00,CLR,,1.34,WeatherDisplay:10.37,2013-07-18 15:33:00,
2013-07-18 10:38:00,79.4,75.9,30.11,SE,144,0.0,0.0,89,0.00,CLR,,1.34,WeatherDisplay:10.37,2013-07-18 15:38:00,
2013-07-18 10:43:00,79.7,75.8,30.11,SE,144,0.0,0.0,88,0.00,CLR,,1.34,WeatherDisplay:10.37,2013-07-18 15:43:00,
2013-07-18 10:48:00,79.9,75.7,30.11,SE,144,0.0,0.0,87,0.00,CLR,,1.34,WeatherDisplay:10.37,2013-07-18 15:48:00,
2013-07-18 10:53:00,80.3,76.1,30.11,NE,45,1.8,2.2,87,0.00,CLR,,1.34,WeatherDisplay:10.37,2013-07-18 15:53:00,
2013-07-18 10:58:00,80.8,76.6,30.11,ENE,76,0.0,0.0,87,0.00,CLR,,1.34,WeatherDisplay:10.37,2013-07-18 15:58:00,
2013-07-18 11:03:00,81.2,76.3,30.12,ENE,64,5.5,6.8,85,0.00,CLR,,1.34,WeatherDisplay:10.37,2013-07-18 16:03:00,
2013-07-18 11:08:00,81.3,76.0,30.12,ENE,71,2.7,4.6,84,0.00,CLR,,1.34,WeatherDisplay:10.37,2013-07-18 16:08:00,
2013-07-18 11:14:00,81.9,76.6,30.12,ENE,61,2.4,5.8,84,0.00,CLR,,1.34,WeatherDisplay:10.37,2013-07-18 16:14:00,
2013-07-18 11:19:00,82.1,76.1,30.12,NE,56,4.6,5.8,82,0.00,CLR,,1.34,WeatherDisplay:10.37,2013-07-18 16:19:00,
2013-07-18 11:24:00,82.2,76.2,30.12,ENE,68,3.5,5.8,82,0.00,CLR,,1.34,WeatherDisplay:10.37,2013-07-18 16:24:00,
2013-07-18 11:29:00,82.5,76.4,30.12,ENE,75,3.6,5.8,82,0.00,CLR,,1.34,WeatherDisplay:10.37,2013-07-18 16:29:00,
2013-07-18 11:34:00,82.8,76.4,30.12,ENE,72,3.4,4.6,81,0.00,CLR,,1.34,WeatherDisplay:10.37,2013-07-18 16:34:00,
2013-07-18 11:39:00,83.1,76.3,30.12,NE,48,4.2,5.8,80,0.00,CLR,,1.34,WeatherDisplay:10.37,2013-07-18 16:39:00,
2013-07-18 11:44:00,83.4,76.6,30.12,NE,41,4.3,8.1,80,0.00,CLR,,1.34,WeatherDisplay:10.37,2013-07-18 16:44:00,
2013-07-18 11:49:00,83.5,75.9,30.12,NE,35,3.9,6.9,78,0.00,CLR,,1.34,WeatherDisplay:10.37,2013-07-18 16:49:00,
2013-07-18 11:54:00,83.4,75.8,30.12,ENE,64,3.6,5.8,78,0.00,CLR,,1.34,WeatherDisplay:10.37,2013-07-18 16:54:00,
2013-07-18 11:59:00,83.4,76.2,30.11,NE,54,3.9,5.2,79,0.00,CLR,,1.34,WeatherDisplay:10.37,2013-07-18 16:59:00,
2013-07-18 12:04:00,83.5,76.3,30.11,ENE,65,3.1,4.6,79,0.00,CLR,,1.34,WeatherDisplay:10.37,2013-07-18 17:04:00,
2013-07-18 12:09:00,83.4,76.2,30.11,ENE,61,4.7,6.3,79,0.00,CLR,,1.34,WeatherDisplay:10.37,2013-07-18 17:09:00,
2013-07-18 12:14:00,83.4,76.2,30.10,NE,41,5.3,9.2,79,0.00,CLR,,1.34,WeatherDisplay:10.37,2013-07-18 17:14:00,
2013-07-18 12:19:00,83.4,76.2,30.10,North,3,4.7,8.5,79,0.00,CLR,,1.34,WeatherDisplay:10.37,2013-07-18 17:19:00,
2013-07-18 12:24:00,83.4,76.6,30.10,ENE,64,5.9,9.2,80,0.00,CLR,,1.34,WeatherDisplay:10.37,2013-07-18 17:24:00,
2013-07-18 12:29:00,83.5,76.3,30.10,NE,42,7.2,8.1,79,0.00,CLR,,1.34,WeatherDisplay:10.37,2013-07-18 17:29:00,
2013-07-18 12:34:00,83.8,76.6,30.10,NE,55,6.7,10.4,79,0.00,CLR,,1.34,WeatherDisplay:10.37,2013-07-18 17:34:00,
2013-07-18 12:39:00,84.3,76.7,30.10,NE,35,6.2,8.1,78,0.00,CLR,,1.34,WeatherDisplay:10.37,2013-07-18 17:39:00,
2013-07-18 12:44:00,84.5,76.5,30.10,NE,51,8.0,10.4,77,0.00,CLR,,1.34,WeatherDisplay:10.37,2013-07-18 17:44:00,
2013-07-18 12:49:00,84.8,76.8,30.10,NE,52,7.6,8.6,77,0.00,CLR,,1.34,WeatherDisplay:10.37,2013-07-18 17:49:00,
2013-07-18 12:54:00,84.7,76.3,30.10,ENE,58,7.5,10.4,76,0.00,CLR,,1.34,WeatherDisplay:10.37,2013-07-18 17:54:00,
2013-07-18 12:59:00,84.5,76.5,30.10,NE,51,7.4,10.8,77,0.00,CLR,,1.34,WeatherDisplay:10.37,2013-07-18 17:59:00,
2013-07-18 13:04:00,84.5,77.3,30.10,ENE,73,7.1,10.8,79,0.00,CLR,,1.34,WeatherDisplay:10.37,2013-07-18 18:04:00,
2013-07-18 13:10:00,84.9,77.3,30.10,East,79,10.9,13.9,78,0.00,CLR,,1.34,WeatherDisplay:10.37,2013-07-18 18:10:00,
2013-07-18 13:15:00,85.4,77.4,30.10,ENE,65,7.1,10.8,77,0.00,CLR,,1.34,WeatherDisplay:10.37,2013-07-18 18:15:00,
2013-07-18 13:20:00,86.0,77.1,30.10,East,92,7.8,11.5,75,0.00,CLR,,1.34,WeatherDisplay:10.37,2013-07-18 18:20:00,
2013-07-18 13:25:00,86.3,76.2,30.09,ENE,71,6.6,10.4,72,0.00,CLR,,1.34,WeatherDisplay:10.37,2013-07-18 18:25:00,
2013-07-18 13:30:00,86.6,76.1,30.09,East,79,5.7,8.1,71,0.00,CLR,,1.34,WeatherDisplay:10.37,2013-07-18 18:30:00,
2013-07-18 13:35:00,86.9,75.9,30.08,NE,54,6.3,10.4,70,0.00,CLR,,1.34,WeatherDisplay:10.37,2013-07-18 18:35:00,
2013-07-18 13:40:00,87.1,75.3,30.08,ENE,62,6.4,9.2,68,0.00,CLR,,1.34,WeatherDisplay:10.37,2013-07-18 18:40:00,
2013-07-18 13:45:00,87.1,73.9,30.08,East,79,5.3,8.1,65,0.00,CLR,,1.34,WeatherDisplay:10.37,2013-07-18 18:45:00,
2013-07-18 13:50:00,86.8,73.2,30.07,East,83,7.4,10.4,64,0.00,CLR,,1.34,WeatherDisplay:10.37,2013-07-18 18:50:00,
2013-07-18 13:55:00,86.7,73.1,30.07,East,82,5.1,7.6,64,0.00,CLR,,1.34,WeatherDisplay:10.37,2013-07-18 18:55:00,
2013-07-18 14:00:00,86.9,73.3,30.07,East,92,4.4,9.2,64,0.00,CLR,,1.34,WeatherDisplay:10.37,2013-07-18 19:00:00,
2013-07-18 14:05:00,87.0,73.8,30.07,ENE,78,6.8,11.5,65,0.00,CLR,,1.34,WeatherDisplay:10.37,2013-07-18 19:05:00,
2013-07-18 14:10:00,87.2,73.5,30.06,East,86,7.5,9.4,64,0.00,CLR,,1.34,WeatherDisplay:10.37,2013-07-18 19:10:00,
2013-07-18 14:15:00,87.4,73.7,30.06,East,79,8.5,11.8,64,0.00,CLR,,1.34,WeatherDisplay:10.37,2013-07-18 19:15:00,
2013-07-18 14:20:00,87.1,73.0,30.06,NE,54,5.8,9.2,63,0.00,CLR,,1.34,WeatherDisplay:10.37,2013-07-18 19:20:00,
2013-07-18 14:25:00,86.8,73.2,30.06,ENE,59,4.2,8.1,64,0.00,CLR,,1.34,WeatherDisplay:10.37,2013-07-18 19:25:00,
2013-07-18 14:30:00,86.7,74.0,30.05,East,80,4.6,7.7,66,0.00,CLR,,1.34,WeatherDisplay:10.37,2013-07-18 19:30:00,
2013-07-18 14:35:00,86.8,74.1,30.05,ENE,75,5.1,7.0,66,0.00,CLR,,1.34,WeatherDisplay:10.37,2013-07-18 19:35:00,
2013-07-18 14:40:00,86.5,74.2,30.05,ENE,65,6.0,8.1,67,0.00,CLR,,1.34,WeatherDisplay:10.37,2013-07-18 19:40:00,
2013-07-18 14:45:00,86.4,74.6,30.05,ENE,75,5.2,6.9,68,0.00,CLR,,1.34,WeatherDisplay:10.37,2013-07-18 19:45:00,
2013-07-18 14:50:00,86.3,74.5,30.05,East,83,5.7,7.6,68,0.00,CLR,,1.34,WeatherDisplay:10.37,2013-07-18 19:50:00,
2013-07-18 14:56:00,86.1,74.3,30.05,ENE,69,6.7,9.2,68,0.00,CLR,,1.34,WeatherDisplay:10.37,2013-07-18 19:56:00,
2013-07-18 15:01:00,86.2,74.8,30.05,NE,56,7.0,9.2,69,0.00,CLR,,1.34,WeatherDisplay:10.37,2013-07-18 20:01:00,
2013-07-18 15:06:00,86.0,75.1,30.05,ENE,64,5.9,9.4,70,0.00,CLR,,1.34,WeatherDisplay:10.37,2013-07-18 20:06:00,
2013-07-18 15:11:00,85.9,75.0,30.05,ENE,73,6.4,9.3,70,0.00,CLR,,1.34,WeatherDisplay:10.37,2013-07-18 20:11:00,
2013-07-18 15:16:00,86.0,75.1,30.05,ENE,66,6.8,9.2,70,0.00,CLR,,1.34,WeatherDisplay:10.37,2013-07-18 20:16:00,
2013-07-18 15:21:00,86.0,75.5,30.05,East,80,7.7,10.4,71,0.00,CLR,,1.34,WeatherDisplay:10.37,2013-07-18 20:21:00,
2013-07-18 15:26:00,86.0,75.5,30.05,East,80,8.5,12.7,71,0.00,CLR,,1.34,WeatherDisplay:10.37,2013-07-18 20:26:00,
2013-07-18 15:31:00,85.9,75.4,30.04,ENE,64,6.8,9.6,71,0.00,CLR,,1.34,WeatherDisplay:10.37,2013-07-18 20:31:00,
2013-07-18 15:36:00,86.0,75.5,30.04,East,86,7.0,10.4,71,0.00,CLR,,1.34,WeatherDisplay:10.37,2013-07-18 20:36:00,
2013-07-18 15:41:00,86.0,75.5,30.04,ENE,72,7.8,9.9,71,0.00,CLR,,1.34,WeatherDisplay:10.37,2013-07-18 20:41:00,
2013-07-18 15:46:00,85.9,75.8,30.04,ENE,64,6.4,10.4,72,0.00,CLR,,1.34,WeatherDisplay:10.37,2013-07-18 20:46:00,
2013-07-18 15:51:00,86.0,75.9,30.04,ENE,75,7.1,11.5,72,0.00,CLR,,1.34,WeatherDisplay:10.37,2013-07-18 20:51:00,
2013-07-18 15:56:00,85.7,75.2,30.04,East,86,5.9,10.4,71,0.00,CLR,,1.34,WeatherDisplay:10.37,2013-07-18 20:56:00,
2013-07-18 16:01:00,85.7,75.6,30.04,ESE,102,6.1,10.4,72,0.00,CLR,,1.34,WeatherDisplay:10.37,2013-07-18 21:01:00,
2013-07-18 16:06:00,85.6,75.5,30.03,ENE,72,6.0,10.9,72,0.00,CLR,,1.34,WeatherDisplay:10.37,2013-07-18 21:06:00,
2013-07-18 16:11:00,85.7,75.6,30.03,East,85,5.3,10.4,72,0.00,CLR,,1.34,WeatherDisplay:10.37,2013-07-18 21:11:00,
2013-07-18 16:16:00,85.7,75.6,30.03,ENE,69,7.6,10.4,72,0.00,CLR,,1.34,WeatherDisplay:10.37,2013-07-18 21:16:00,
2013-07-18 16:21:00,85.6,75.5,30.03,ENE,78,7.9,12.7,72,0.00,CLR,,1.34,WeatherDisplay:10.37,2013-07-18 21:21:00,
2013-07-18 16:26:00,85.9,75.8,30.03,East,79,8.3,12.7,72,0.00,CLR,,1.34,WeatherDisplay:10.37,2013-07-18 21:26:00,
2013-07-18 16:31:00,86.0,75.9,30.03,ESE,116,7.6,11.5,72,0.00,CLR,,1.34,WeatherDisplay:10.37,2013-07-18 21:31:00,
2013-07-18 16:36:00,85.9,75.0,30.03,East,79,7.4,9.2,70,0.00,CLR,,1.34,WeatherDisplay:10.37,2013-07-18 21:36:00,
2013-07-18 16:41:00,86.1,75.6,30.03,ESE,102,7.9,11.5,71,0.00,CLR,,1.34,WeatherDisplay:10.37,2013-07-18 21:41:00,
2013-07-18 16:46:00,86.1,75.2,30.03,ESE,106,7.8,11.5,70,0.00,CLR,,1.34,WeatherDisplay:10.37,2013-07-18 21:46:00,
2013-07-18 16:51:00,86.1,75.2,30.03,ESE,102,6.9,12.7,70,0.00,CLR,,1.34,WeatherDisplay:10.37,2013-07-18 21:51:00,
2013-07-18 16:56:00,86.1,75.2,30.03,NE,56,8.3,12.7,70,0.00,CLR,,1.34,WeatherDisplay:10.37,2013-07-18 21:56:00,
2013-07-18 17:01:00,85.8,75.3,30.03,ESE,109,6.9,12.7,71,0.00,CLR,,1.34,WeatherDisplay:10.37,2013-07-18 22:01:00,
2013-07-18 17:06:00,85.7,75.6,30.02,East,80,8.7,12.7,72,0.00,CLR,,1.34,WeatherDisplay:10.37,2013-07-18 22:06:00,
2013-07-18 17:11:00,85.8,75.7,30.02,East,92,10.2,13.8,72,0.00,CLR,,1.34,WeatherDisplay:10.37,2013-07-18 22:11:00,
2013-07-18 17:12:00,85.8,75.7,30.02,East,83,9.3,13.8,72,0.00,CLR,,1.34,WeatherDisplay:10.37,2013-07-18 22:12:00,
2013-07-18 17:17:00,85.8,75.3,30.02,East,86,9.2,11.5,71,0.00,CLR,,1.34,WeatherDisplay:10.37,2013-07-18 22:17:00,
2013-07-18 17:22:00,86.2,75.7,30.01,ESE,103,7.3,11.5,71,0.00,CLR,,1.34,WeatherDisplay:10.37,2013-07-18 22:22:00,
2013-07-18 17:27:00,86.5,75.1,30.01,East,80,7.2,10.4,69,0.00,CLR,,1.34,WeatherDisplay:10.37,2013-07-18 22:27:00,
2013-07-18 17:32:00,87.1,74.8,30.01,East,85,9.6,12.7,67,0.00,CLR,,1.34,WeatherDisplay:10.37,2013-07-18 22:32:00,
2013-07-18 17:37:00,87.5,73.8,30.00,ENE,66,6.5,12.7,64,0.00,CLR,,1.34,WeatherDisplay:10.37,2013-07-18 22:37:00,
2013-07-18 17:42:00,88.1,73.9,30.00,East,89,7.4,10.4,63,0.00,CLR,,1.34,WeatherDisplay:10.37,2013-07-18 22:42:00,
2013-07-18 17:47:00,88.5,73.8,30.00,ENE,58,7.4,9.2,62,0.00,CLR,,1.34,WeatherDisplay:10.37,2013-07-18 22:47:00,
2013-07-18 17:52:00,88.6,72.9,30.00,ENE,66,6.2,8.3,60,0.00,CLR,,1.34,WeatherDisplay:10.37,2013-07-18 22:52:00,
2013-07-18 17:57:00,88.6,73.4,29.99,SE,126,6.5,12.7,61,0.00,CLR,,1.34,WeatherDisplay:10.37,2013-07-18 22:57:00,
2013-07-18 18:02:00,88.6,73.9,29.99,East,88,8.0,11.6,62,0.00,CLR,,1.34,WeatherDisplay:10.37,2013-07-18 23:02:00,
2013-07-18 18:08:00,88.6,73.9,29.99,East,85,7.7,10.6,62,0.00,CLR,,1.34,WeatherDisplay:10.37,2013-07-18 23:08:00,
2013-07-18 18:13:00,88.6,74.4,29.99,ESE,112,6.6,9.2,63,0.00,CLR,,1.34,WeatherDisplay:10.37,2013-07-18 23:13:00,
2013-07-18 18:18:00,88.6,74.4,29.99,East,85,7.6,13.8,63,0.00,CLR,,1.34,WeatherDisplay:10.37,2013-07-18 23:18:00,
2013-07-18 18:23:00,88.9,74.7,29.99,ESE,114,6.6,10.4,63,0.00,CLR,,1.34,WeatherDisplay:10.37,2013-07-18 23:23:00,
2013-07-18 18:28:00,89.1,74.4,29.98,East,79,6.6,11.5,62,0.00,CLR,,1.34,WeatherDisplay:10.37,2013-07-18 23:28:00,
2013-07-18 18:33:00,89.2,74.5,29.98,ESE,116,6.6,9.6,62,0.00,CLR,,1.34,WeatherDisplay:10.37,2013-07-18 23:33:00,
2013-07-18 18:38:00,88.7,74.0,29.97,ESE,113,9.5,12.7,62,0.00,CLR,,1.34,WeatherDisplay:10.37,2013-07-18 23:38:00,
2013-07-18 18:43:00,88.4,74.2,29.97,East,86,9.2,11.7,63,0.00,CLR,,1.34,WeatherDisplay:10.37,2013-07-18 23:43:00,
2013-07-18 18:48:00,88.1,73.4,29.97,ESE,110,7.4,11.5,62,0.00,CLR,,1.34,WeatherDisplay:10.37,2013-07-18 23:48:00,
2013-07-18 18:53:00,88.3,74.1,29.97,East,86,7.9,10.4,63,0.00,CLR,,1.34,WeatherDisplay:10.37,2013-07-18 23:53:00,
2013-07-18 18:58:00,88.1,73.0,29.97,ESE,104,5.1,10.4,61,0.00,CLR,,1.34,WeatherDisplay:10.37,2013-07-18 23:58:00,
2013-07-18 19:03:00,87.5,73.3,29.97,SSE,147,3.7,6.9,63,0.00,CLR,,1.34,WeatherDisplay:10.37,2013-07-19 00:03:00,
2013-07-18 19:08:00,86.9,73.3,29.97,SE,138,5.5,9.2,64,0.00,CLR,,1.34,WeatherDisplay:10.37,2013-07-19 00:08:00,
2013-07-18 19:13:00,86.1,73.0,29.97,ESE,113,5.5,6.9,65,0.00,CLR,,1.34,WeatherDisplay:10.37,2013-07-19 00:13:00,
2013-07-18 19:18:00,85.8,74.0,29.97,East,79,5.0,6.9,68,0.00,CLR,,1.34,WeatherDisplay:10.37,2013-07-19 00:18:00,
2013-07-18 19:23:00,85.8,74.0,29.98,East,82,5.3,8.1,68,0.00,CLR,,1.34,WeatherDisplay:10.37,2013-07-19 00:23:00,
2013-07-18 19:28:00,85.8,74.0,29.98,East,89,6.1,6.9,68,0.00,CLR,,1.34,WeatherDisplay:10.37,2013-07-19 00:28:00,
2013-07-18 19:33:00,85.9,74.1,29.98,ENE,58,6.4,8.3,68,0.00,CLR,,1.34,WeatherDisplay:10.37,2013-07-19 00:33:00,
2013-07-18 19:38:00,85.9,74.1,29.98,East,79,5.5,9.2,68,0.00,CLR,,1.34,WeatherDisplay:10.37,2013-07-19 00:38:00,
2013-07-18 19:43:00,85.8,74.0,29.98,East,90,6.1,8.1,68,0.00,CLR,,1.34,WeatherDisplay:10.37,2013-07-19 00:43:00,
2013-07-18 19:48:00,85.8,74.0,29.98,East,97,7.3,11.5,68,0.00,CLR,,1.34,WeatherDisplay:10.37,2013-07-19 00:48:00,
2013-07-18 19:53:00,85.8,74.0,29.98,ENE,76,6.9,10.4,68,0.00,CLR,,1.34,WeatherDisplay:10.37,2013-07-19 00:53:00,
2013-07-18 19:59:00,85.5,74.2,29.98,East,96,6.0,9.2,69,0.00,CLR,,1.34,WeatherDisplay:10.37,2013-07-19 00:59:00,
2013-07-18 20:04:00,85.0,73.7,29.98,ENE,58,5.4,7.2,69,0.00,CLR,,1.34,WeatherDisplay:10.37,2013-07-19 01:04:00,
2013-07-18 20:09:00,84.7,73.8,29.98,East,79,5.4,8.1,70,0.00,CLR,,1.34,WeatherDisplay:10.37,2013-07-19 01:09:00,
2013-07-18 20:14:00,84.6,74.2,29.99,East,79,5.4,10.4,71,0.00,CLR,,1.34,WeatherDisplay:10.37,2013-07-19 01:14:00,
2013-07-18 20:19:00,84.4,74.0,29.99,East,96,5.9,8.3,71,0.00,CLR,,1.34,WeatherDisplay:10.37,2013-07-19 01:19:00,
2013-07-18 20:24:00,84.2,74.2,29.99,East,90,5.7,8.1,72,0.00,CLR,,1.34,WeatherDisplay:10.37,2013-07-19 01:24:00,
2013-07-18 20:29:00,84.0,74.0,29.99,East,86,4.0,5.8,72,0.00,CLR,,1.34,WeatherDisplay:10.37,2013-07-19 01:29:00,
2013-07-18 20:34:00,84.0,74.4,29.99,East,95,5.8,9.2,73,0.00,CLR,,1.34,WeatherDisplay:10.37,2013-07-19 01:34:00,
2013-07-18 20:39:00,83.8,74.2,29.99,East,89,5.4,8.4,73,0.00,CLR,,1.34,WeatherDisplay:10.37,2013-07-19 01:39:00,
2013-07-18 20:44:00,83.5,74.3,29.99,East,97,4.3,10.5,74,0.00,CLR,,1.34,WeatherDisplay:10.37,2013-07-19 01:44:00,
2013-07-18 20:49:00,83.4,74.6,29.99,ESE,107,3.8,8.1,75,0.00,CLR,,1.34,WeatherDisplay:10.37,2013-07-19 01:49:00,
2013-07-18 20:54:00,83.4,74.6,29.99,East,88,4.6,7.1,75,0.00,CLR,,1.34,WeatherDisplay:10.37,2013-07-19 01:54:00,
2013-07-18 20:59:00,83.3,74.9,29.99,ESE,109,2.8,5.8,76,0.00,CLR,,1.34,WeatherDisplay:10.37,2013-07-19 01:59:00,
2013-07-18 21:04:00,83.1,75.1,29.99,ESE,103,5.1,8.1,77,0.00,CLR,,1.34,WeatherDisplay:10.37,2013-07-19 02:04:00,
2013-07-18 21:09:00,83.2,75.2,29.99,East,99,5.8,8.3,77,0.00,CLR,,1.34,WeatherDisplay:10.37,2013-07-19 02:09:00,
2013-07-18 21:14:00,83.0,75.4,30.00,East,80,3.8,6.9,78,0.00,CLR,,1.34,WeatherDisplay:10.37,2013-07-19 02:14:00,
2013-07-18 21:19:00,83.0,75.8,29.99,East,92,5.2,7.0,79,0.00,CLR,,1.34,WeatherDisplay:10.37,2013-07-19 02:19:00,
2013-07-18 21:24:00,82.8,75.6,30.00,East,96,4.5,9.2,79,0.00,CLR,,1.34,WeatherDisplay:10.37,2013-07-19 02:24:00,
2013-07-18 21:29:00,82.7,75.9,30.00,ENE,76,5.5,8.0,80,0.00,CLR,,1.34,WeatherDisplay:10.37,2013-07-19 02:29:00,
2013-07-18 21:34:00,82.4,76.0,30.00,ENE,68,6.6,9.2,81,0.00,CLR,,1.34,WeatherDisplay:10.37,2013-07-19 02:34:00,
2013-07-18 21:39:00,82.4,76.0,30.00,ENE,68,7.2,12.1,81,0.00,CLR,,1.34,WeatherDisplay:10.37,2013-07-19 02:39:00,
2013-07-18 21:44:00,82.3,75.9,30.00,East,99,7.0,10.4,81,0.00,CLR,,1.34,WeatherDisplay:10.37,2013-07-19 02:44:00,
2013-07-18 21:49:00,82.1,75.7,30.00,East,92,4.8,7.9,81,0.00,CLR,,1.34,WeatherDisplay:10.37,2013-07-19 02:49:00,
2013-07-18 21:54:00,82.2,76.2,30.01,East,85,6.4,8.6,82,0.00,CLR,,1.34,WeatherDisplay:10.37,2013-07-19 02:54:00,
2013-07-18 21:59:00,82.2,76.2,30.01,East,92,4.3,8.1,82,0.00,CLR,,1.34,WeatherDisplay:10.37,2013-07-19 02:59:00,
2013-07-18 22:04:00,82.2,76.2,30.01,East,86,5.7,9.0,82,0.00,CLR,,1.34,WeatherDisplay:10.37,2013-07-19 03:04:00,
2013-07-18 22:09:00,82.0,76.0,30.01,East,90,4.8,8.1,82,0.00,CLR,,1.34,WeatherDisplay:10.37,2013-07-19 03:09:00,
2013-07-18 22:14:00,82.0,76.0,30.01,ENE,73,7.0,9.3,82,0.00,CLR,,1.34,WeatherDisplay:10.37,2013-07-19 03:14:00,
2013-07-18 22:19:00,81.9,75.9,30.02,ENE,69,7.8,10.6,82,0.00,CLR,,1.34,WeatherDisplay:10.37,2013-07-19 03:19:00,
2013-07-18 22:24:00,82.1,76.1,30.02,East,88,5.3,9.2,82,0.00,CLR,,1.34,WeatherDisplay:10.37,2013-07-19 03:24:00,
2013-07-18 22:29:00,82.0,76.3,30.02,East,80,6.1,9.2,83,0.00,CLR,,1.34,WeatherDisplay:10.37,2013-07-19 03:29:00,
2013-07-18 22:34:00,82.0,76.3,30.02,East,99,6.4,9.2,83,0.00,CLR,,1.34,WeatherDisplay:10.37,2013-07-19 03:34:00,
2013-07-18 22:39:00,82.0,76.3,30.02,ENE,59,6.6,10.4,83,0.00,CLR,,1.34,WeatherDisplay:10.37,2013-07-19 03:39:00,
2013-07-18 22:44:00,81.9,76.6,30.03,East,92,5.5,9.2,84,0.00,CLR,,1.34,WeatherDisplay:10.37,2013-07-19 03:44:00,
2013-07-18 22:49:00,81.9,76.6,30.03,ESE,109,8.0,11.5,84,0.00,CLR,,1.34,WeatherDisplay:10.37,2013-07-19 03:49:00,
2013-07-18 22:54:00,81.9,76.9,30.03,ENE,58,7.4,8.4,85,0.00,CLR,,1.34,WeatherDisplay:10.37,2013-07-19 03:54:00,
2013-07-18 22:59:00,82.0,77.0,30.03,East,95,5.1,9.2,85,0.00,CLR,,1.34,WeatherDisplay:10.37,2013-07-19 03:59:00,
2013-07-18 23:01:00,81.9,76.9,30.03,East,85,6.7,9.1,85,0.00,CLR,,1.34,WeatherDisplay:10.37,2013-07-19 04:01:00,
2013-07-18 23:02:00,81.9,76.9,30.03,ESE,106,7.5,10.3,85,0.00,CLR,,1.34,WeatherDisplay:10.37,2013-07-19 04:02:00,
2013-07-18 23:07:00,81.8,77.2,30.03,East,93,6.6,12.7,86,0.00,CLR,,1.34,WeatherDisplay:10.37,2013-07-19 04:07:00,
2013-07-18 23:08:00,81.7,77.1,30.03,East,92,7.9,11.5,86,0.00,CLR,,1.34,WeatherDisplay:10.37,2013-07-19 04:08:00,
2013-07-18 23:14:00,81.6,77.0,30.03,ESE,109,0.0,9.9,86,0.00,CLR,,1.34,WeatherDisplay:10.37,2013-07-19 04:14:00,
2013-07-18 23:19:00,81.6,77.0,30.03,East,96,8.7,11.5,86,0.00,RA,,1.34,WeatherDisplay:10.37,2013-07-19 04:19:00,
2013-07-18 23:24:00,81.7,77.5,30.03,ESE,104,5.5,8.1,87,0.00,RA,,1.34,WeatherDisplay:10.37,2013-07-19 04:24:00,
2013-07-18 23:29:00,81.5,77.3,30.04,ESE,107,6.8,10.4,87,0.00,RA,,1.34,WeatherDisplay:10.37,2013-07-19 04:29:00,
2013-07-18 23:34:00,81.5,77.3,30.04,ESE,103,5.4,7.2,87,0.00,RA,,1.34,WeatherDisplay:10.37,2013-07-19 04:34:00,
2013-07-18 23:39:00,81.5,77.3,30.04,East,88,8.4,11.5,87,0.00,CLR,,1.34,WeatherDisplay:10.37,2013-07-19 04:39:00,
2013-07-18 23:44:00,81.6,77.7,30.04,ESE,109,7.5,12.7,88,0.00,CLR,,1.34,WeatherDisplay:10.37,2013-07-19 04:44:00,
2013-07-18 23:49:00,81.7,77.8,30.04,East,80,5.8,9.2,88,0.00,CLR,,1.34,WeatherDisplay:10.37,2013-07-19 04:49:00,
2013-07-18 23:54:00,81.5,77.6,30.04,East,92,7.1,12.7,88,0.00,CLR,,1.34,WeatherDisplay:10.37,2013-07-19 04:54:00,
2013-07-18 23:59:00,81.3,77.4,30.04,ESE,112,7.2,10.8,88,0.00,CLR,,1.34,WeatherDisplay:10.37,2013-07-19 04:59:00,